Latest Coastal Weather Observations for Maatsuyker Island

IDT60701

Issued at 11:12 pm EST Tuesday 28 June 2016 (issued every 10 minutes, with the page automatically refreshed every 10 minutes)

About coastal observations | Map of coastal stations | Coastal observations for TAS | Marine services | Other Formats
Station Details ID: 094041 Name: MAATSUYKER ISLAND LIGHTHOUSE Lat: -43.66 Lon: 146.27 Height: 146.5 m
Data from the previous 72 hours. | See also: Recent months at Maatsuyker Island
Date/Time
EST
Temp
°C
Wind Pressure Rain since
9am
mm
Weather Cloud Vis
km
Sea
Height
m
Swell
Dir  Spd
kts
Gust
kts
hPa Trend Height
m
Period
s
Dir
28/11:02pm 9.6 NW 47 57 1013.0 - 3.2 - - - - - - -
28/11:00pm 11.9 NW 48 57 1010.7 - 3.2 - - - - - - -
28/10:32pm 11.9 NNW 45 55 1010.5 - 3.0 - - - - - - -
28/10:30pm 11.9 NNW 46 55 1010.2 - 2.8 - - - - - - -
28/10:06pm 12.4 NNW 46 56 1009.9 - 2.8 - - - - - - -
28/10:00pm 12.5 NNW 47 55 1010.2 - 2.8 - - - - - - -
28/09:33pm 12.4 NNW 43 53 1010.5 - 2.8 - - - - - - -
28/09:30pm 12.4 NNW 44 52 1010.3 - 2.8 - - - - - - -
28/09:00pm 12.5 NNW 42 53 1010.4 - 2.8 - - - - - - -
28/08:30pm 12.4 NNW 43 54 1010.3 - 2.8 - - - - - - -
28/08:01pm 12.4 NNW 41 51 1010.6 - 2.8 - - - - - - -
28/08:00pm 12.4 NNW 42 51 1010.5 - 2.8 - - - - - - -
28/07:37pm 12.1 NNW 38 49 1010.6 - 2.6 - - - - - - -
28/07:30pm 12.3 NNW 37 45 1011.0 - 2.6 - - - - - - -
28/07:23pm 12.2 NNW 36 46 1011.4 - 2.6 - - - - - - -
28/07:00pm 12.3 NNW 41 48 1010.8 - 2.6 - - - - - - -
28/06:30pm 12.3 NNW 41 50 1011.0 - 2.6 - - - - - - -
28/06:02pm 12.3 NNW 39 49 1010.8 - 2.6 - - - - - - -
28/06:00pm 12.2 NNW 40 49 1011.1 - 2.6 - - - - - - -
28/05:30pm 12.1 NW 44 55 1010.2 - 2.6 - - - - - - -
28/05:10pm 12.1 NNW 37 47 1010.9 - 2.6 - - - - - - -
28/05:00pm 12.0 NNW 37 45 1010.5 - 2.6 - - - - - - -
28/04:30pm 11.8 NNW 42 50 1010.4 - 2.6 - - - - - - -
28/04:04pm 11.8 NNW 37 49 1010.2 - 2.6 - - - - - - -
28/04:00pm 11.9 NNW 37 45 1010.4 - 2.6 - - - - - - -
28/03:30pm 11.7 NNW 38 46 1010.6 - 2.6 - - - - - - -
28/03:00pm 11.7 NNW 37 43 1010.8 - 2.6 - - - - - - -
28/02:30pm 11.5 NNW 39 46 1010.2 - 2.6 - - - - - - -
28/02:00pm 11.1 NW 39 45 1010.0 - 2.6 - - - - - - -
28/01:45pm 10.5 NNW 40 50 1010.2 - 2.4 - - - - - - -
28/01:30pm 11.6 NW 44 51 1009.9 - 0.0 - - - - - - -
28/01:14pm 11.9 NW 39 49 1010.0 - 0.0 - - - - - - -
28/01:00pm 11.8 NW 41 50 1010.1 - 0.0 - - - - - - -
28/12:30pm 11.6 NW 45 51 1009.9 - 0.0 - - - - - - -
28/12:00pm 11.7 NNW 45 53 1009.5 - 0.0 - - - - - - -
28/11:30am 11.9 NW 45 52 1009.9 - 0.0 - - - - - - -
28/11:08am 11.8 NNW 40 50 1009.6 - 0.0 - - - - - - -
28/11:00am 11.7 NNW 39 47 1010.2 - 0.0 - - - - - - -
28/10:30am 11.7 NW 43 48 1010.1 - 0.0 - - - - - - -
28/10:00am 11.5 NW 43 49 1009.9 - 0.0 - - - - - - -
28/09:30am 11.6 NW 44 52 1009.8 - 0.0 - - - - - - -
28/09:00am 11.3 NW 40 51 1009.3 R 2.2 Distant precip. Cloudy 8 3 4.5 15 SW
28/08:30am 11.5 NW 45 51 1008.6 - 2.2 - - - - - - -
28/08:00am 11.3 NW 46 55 1008.3 - 2.2 - - - - - - -
28/07:30am 11.4 NW 46 54 1008.0 - 2.2 - - - - - - -
28/07:18am 11.3 NW 44 54 1008.1 - 2.2 - - - - - - -
28/07:00am 11.8 NNW 43 51 1007.9 - 2.0 - - - - - - -
28/06:30am 11.7 NNW 44 51 1007.4 - 2.0 - - - - - - -
28/06:14am 11.8 NNW 43 53 1007.6 - 2.0 - - - - - - -
28/06:00am 11.8 NW 40 55 1006.9 F 2.0 Distant precip. Cloudy 10 3 4.5 15 SW
28/05:43am 11.9 NNW 43 53 1006.9 - 2.0 - - - - - - -
28/05:30am 11.8 NNW 44 51 1006.8 - 2.0 - - - - - - -
28/05:00am 11.6 NW 44 50 1006.8 - 2.0 - - - - - - -
28/04:30am 11.8 NNW 42 50 1006.7 - 2.0 - - - - - - -
28/04:18am 11.8 NNW 41 54 1006.4 - 2.0 - - - - - - -
28/04:00am 11.8 NW 41 48 1007.1 - 2.0 - - - - - - -
28/03:30am 11.6 NW 43 51 1007.0 - 2.0 - - - - - - -
28/03:00am 11.5 NW 46 54 1007.0 - 2.0 - - - - - - -
28/02:30am 11.0 NW 47 55 1006.3 - 2.0 - - - - - - -
28/02:00am 11.5 NW 49 55 1006.0 - 2.0 - - - - - - -
28/01:56am 11.5 NNW 50 55 1005.4 - 2.0 - - - - - - -
28/01:30am 11.6 NNW 39 49 1006.0 - 1.8 - - - - - - -
28/01:15am 11.4 NNW 41 51 1006.0 - 1.8 - - - - - - -
28/01:00am 11.3 NNW 40 48 1006.2 - 1.8 - - - - - - -
28/12:34am 10.5 NNW 41 52 1006.0 - 1.8 - - - - - - -
28/12:30am 11.4 NNW 41 48 1006.4 - 1.4 - - - - - - -
28/12:00am 11.1 NNW 38 46 1006.9 - 1.4 - - - - - - -
 
Date/Time
EST
Temp
°C
Wind Pressure Rain since
9am
mm
Weather Cloud Vis
km
Sea
Height
m
Swell
Dir  Spd
kts
Gust
kts
hPa Trend Height
m
Period
s
Dir
27/11:49pm 11.2 NNW 40 50 1006.9 - 1.4 - - - - - - -
27/11:48pm 11.2 NNW 41 50 1006.9 - 1.4 - - - - - - -
27/11:30pm 10.7 NNW 30 42 1007.0 - 1.4 - - - - - - -
27/11:09pm 9.9 NNW 25 40 1007.6 - 1.2 - - - - - - -
27/11:00pm 10.0 NNW 25 32 1008.0 - 1.2 - - - - - - -
27/10:30pm 9.8 NNW 25 33 1008.2 - 0.2 - - - - - - -
27/10:00pm 9.5 NNW 25 37 1008.4 - 0.2 - - - - - - -
27/09:30pm 9.8 NNW 25 35 1008.5 - 0.0 - - - - - - -
27/09:28pm 9.8 NNW 25 35 1008.4 - 0.0 - - - - - - -
27/09:00pm 10.0 NNW 25 34 1008.7 - 0.0 - - - - - - -
27/08:49pm 10.0 NNW 25 35 1008.6 - 0.0 - - - - - - -
27/08:30pm 9.9 NNW 26 34 1008.8 - 0.0 - - - - - - -
27/08:00pm 9.6 NNW 25 31 1008.7 - 0.0 - - - - - - -
27/07:30pm 9.7 NNW 24 30 1008.9 - 0.0 - - - - - - -
27/07:00pm 9.9 NNW 23 30 1008.7 - 0.0 - - - - - - -
27/06:30pm 10.0 NNW 24 30 1008.5 - 0.0 - - - - - - -
27/06:00pm 10.4 NNW 28 40 1008.5 - 0.0 - - - - - - -
27/05:50pm 10.9 NNW 32 42 1007.5 - 0.0 - - - - - - -
27/05:30pm 10.8 NNW 32 41 1007.9 - 0.0 - - - - - - -
27/05:12pm 10.8 NNW 32 42 1007.9 - 0.0 - - - - - - -
27/05:00pm 10.7 NNW 31 40 1007.9 - 0.0 - - - - - - -
27/04:43pm 10.5 NNW 30 40 1008.0 - 0.0 - - - - - - -
27/04:30pm 10.5 NNW 31 39 1007.9 - 0.0 - - - - - - -
27/04:00pm 10.6 NNW 31 41 1007.8 - 0.0 - - - - - - -
27/03:59pm 10.6 NNW 31 41 1007.8 - 0.0 - - - - - - -
27/03:30pm 10.6 NNW 33 39 1007.8 - 0.0 - - - - - - -
27/03:18pm 10.8 NNW 30 40 1008.1 - 0.0 - - - - - - -
27/03:00pm 10.5 NNW 34 41 1008.4 - 0.0 - - - - - - -
27/02:45pm 10.4 NNW 28 38 1008.2 - 0.0 - - - - - - -
27/02:30pm 10.2 NNW 25 32 1008.6 - 0.0 - - - - - - -
27/02:20pm 10.2 NNW 29 39 1008.5 - 0.0 - - - - - - -
27/02:11pm 10.3 NW 33 36 1008.2 - 0.0 - - - - - - -
27/02:05pm 10.0 NNW 22 35 1008.8 - 0.0 - - - - - - -
27/02:00pm 9.6 NNW 20 25 1008.9 - 0.0 - - - - - - -
27/01:30pm 10.3 NNW 27 32 1008.6 - 0.0 - - - - - - -
27/01:14pm 10.1 NNW 33 43 1008.7 - 0.0 - - - - - - -
27/01:06pm 9.9 NW 35 41 1008.4 - 0.0 - - - - - - -
27/01:00pm 9.7 NNW 21 31 1009.1 - 0.0 - - - - - - -
27/12:57pm 9.6 NNW 21 31 1009.3 - 0.0 - - - - - - -
27/12:30pm 9.8 NNW 25 31 1009.3 - 0.0 - - - - - - -
27/12:00pm 9.9 NNW 23 29 1009.8 - 0.0 - - - - - - -
27/11:30am 10.1 NNW 28 34 1009.8 - 0.0 - - - - - - -
27/11:00am 10.0 NW 28 32 1009.9 - 0.0 - - - - - - -
27/10:30am 10.0 NW 30 36 1009.7 - 0.0 - - - - - - -
27/10:00am 9.6 NW 30 34 1009.9 - 0.0 - - - - - - -
27/09:30am 9.2 NW 34 39 1009.3 - 0.0 - - - - - - -
27/09:00am 9.2 NW 27 37 1009.7 F 23.6 Distant precip. Mostly cloudy 18 2 3.0 12 SW
27/08:30am 8.8 NW 31 35 1009.5 - 23.6 - - - - - - -
27/08:00am 8.2 NNW 31 37 1009.4 - 23.6 - - - - - - -
27/07:30am 8.8 NW 26 32 1009.3 - 23.4 - - - - - - -
27/07:00am 8.5 NW 29 32 1008.9 - 23.4 - - - - - - -
27/06:30am 8.7 WNW 27 31 1008.8 - 23.4 - - - - - - -
27/06:13am 8.5 NW 27 37 1008.6 - 23.4 - - - - - - -
27/06:00am 8.5 NW 24 35 1008.8 R 23.2 Showers Mostly cloudy 12 2 3.0 10 SW
27/05:50am 7.9 NW 33 35 1008.2 - 23.2 - - - - - - -
27/05:32am 8.5 NW 23 33 1008.2 - 22.0 - - - - - - -
27/05:30am 8.5 NW 21 25 1008.5 - 22.0 - - - - - - -
27/05:24am 8.7 NW 32 36 1008.2 - 21.8 - - - - - - -
27/05:22am 9.2 WNW 21 31 1008.5 - 21.8 - - - - - - -
27/05:00am 9.5 NW 27 30 1008.1 - 21.8 - - - - - - -
27/04:30am 9.6 NW 26 31 1008.1 - 21.8 - - - - - - -
27/04:00am 9.3 NW 25 29 1008.1 - 21.8 - - - - - - -
27/03:30am 9.3 NW 24 27 1008.1 - 21.8 - - - - - - -
27/03:00am 9.3 NW 26 31 1008.2 - 21.8 - - - - - - -
27/02:30am 9.2 WNW 26 31 1008.1 - 21.8 - - - - - - -
27/02:00am 9.3 WNW 26 30 1008.0 - 21.8 - - - - - - -
27/01:30am 9.6 NW 27 33 1007.9 - 21.8 - - - - - - -
27/01:00am 9.4 NW 28 32 1007.7 - 21.8 - - - - - - -
27/12:30am 9.5 NW 26 31 1007.6 - 21.8 - - - - - - -
27/12:16am 8.9 WNW 21 25 1007.8 - 21.8 - - - - - - -
27/12:00am 8.6 NNW 18 23 1008.0 - 21.8 - - - - - - -
 
Date/Time
EST
Temp
°C
Wind Pressure Rain since
9am
mm
Weather Cloud Vis
km
Sea
Height
m
Swell
Dir  Spd
kts
Gust
kts
hPa Trend Height
m
Period
s
Dir
26/11:30pm 8.6 NNW 15 19 1007.9 - 21.8 - - - - - - -
26/11:00pm 8.7 NNW 19 23 1007.7 - 21.6 - - - - - - -
26/10:30pm 8.7 NW 25 28 1007.6 - 21.0 - - - - - - -
26/10:00pm 8.7 NNW 23 29 1007.3 - 19.4 - - - - - - -
26/09:30pm 8.6 NW 22 33 1007.4 - 18.6 - - - - - - -
26/09:23pm 9.1 NNW 23 33 1007.7 - 18.2 - - - - - - -
26/09:00pm 9.1 NNW 19 26 1007.3 - 16.0 - - - - - - -
26/08:45pm 8.9 NNW 22 32 1006.9 - 15.2 - - - - - - -
26/08:30pm 9.3 NNW 22 29 1007.0 - 14.4 - - - - - - -
26/08:00pm 9.0 NNW 23 31 1006.7 - 13.6 - - - - - - -
26/07:42pm 9.0 NNW 24 34 1006.8 - 13.6 - - - - - - -
26/07:30pm 9.0 NNW 25 34 1006.8 - 13.4 - - - - - - -
26/07:24pm 9.1 NNW 24 34 1007.0 - 13.0 - - - - - - -
26/07:00pm 9.6 NNW 21 29 1007.2 - 11.4 - - - - - - -
26/06:30pm 9.0 NNW 23 31 1007.5 - 11.0 - - - - - - -
26/06:25pm 9.2 NNW 19 30 1007.4 - 10.6 - - - - - - -
26/06:00pm 8.8 N 18 23 1007.5 - 9.8 - - - - - - -
26/05:40pm 8.9 NNW 21 31 1007.7 - 8.4 - - - - - - -
26/05:30pm 9.3 NNW 23 31 1007.6 - 7.4 - - - - - - -
26/05:00pm 9.2 NNW 22 30 1007.8 - 7.4 - - - - - - -
26/04:30pm 8.9 NNW 24 32 1007.9 - 7.0 - - - - - - -
26/04:00pm 9.1 NNW 18 25 1008.5 - 4.4 - - - - - - -
26/03:30pm 9.2 NNW 22 31 1008.4 - 1.4 - - - - - - -
26/03:04pm 10.0 NNW 25 35 1008.0 - 1.0 - - - - - - -
26/03:00pm 10.0 NNW 24 31 1008.3 - 1.0 - - - - - - -
26/02:48pm 10.2 NNW 21 31 1008.0 - 1.0 - - - - - - -
26/02:30pm 10.1 NNW 21 28 1008.1 - 1.0 - - - - - - -
26/02:00pm 9.7 NNW 19 27 1008.5 - 1.0 - - - - - - -
26/01:30pm 10.1 NNW 21 28 1008.8 - 0.4 - - - - - - -
26/01:00pm 10.1 NNW 22 29 1009.0 - 0.2 - - - - - - -
26/12:31pm 10.2 NNW 22 32 1009.5 - 0.2 - - - - - - -
26/12:30pm 10.2 NNW 22 29 1009.6 - 0.2 - - - - - - -
26/12:00pm 10.3 NNW 23 31 1010.1 - 0.0 - - - - - - -
26/11:46am 10.5 NNW 22 33 1009.9 - 0.0 - - - - - - -
26/11:30am 10.6 NNW 24 33 1010.3 - 0.0 - - - - - - -
26/11:17am 10.5 NNW 23 33 1010.5 - 0.0 - - - - - - -
26/11:00am 10.4 NNW 20 28 1011.0 - 0.0 - - - - - - -
26/10:30am 9.9 NNW 21 27 1011.7 - 0.0 - - - - - - -
26/10:00am 9.7 NNW 20 26 1012.0 - 0.0 - - - - - - -
26/09:30am 9.4 NNW 21 27 1012.1 - 0.0 - - - - - - -
26/09:00am 9.5 NNW 17 24 1012.4 F 3.2 Distant precip. Mostly cloudy 0 1 2.5 13 SW
26/08:30am 9.6 NNW 20 27 1012.4 - 3.2 - - - - - - -
26/08:00am 9.6 NNW 21 27 1012.5 - 3.2 - - - - - - -
26/07:30am 9.3 NNW 20 25 1012.7 - 3.2 - - - - - - -
26/07:00am 9.2 NNW 19 25 1012.6 - 3.2 - - - - - - -
26/06:30am 9.3 NNW 19 25 1012.8 - 3.2 - - - - - - -
26/06:00am 9.2 N 12 22 1013.1 F 3.2 Fine Partly cloudy 15 1 2.5 13 SW
26/05:30am 9.3 NNW 20 26 1012.9 - 3.2 - - - - - - -
26/05:00am 9.4 NNW 18 23 1013.0 - 3.2 - - - - - - -
26/04:30am 9.6 NNW 18 23 1013.1 - 3.2 - - - - - - -
26/04:00am 9.4 NNW 19 25 1013.1 - 3.0 - - - - - - -
26/03:30am 9.5 NNW 18 24 1013.1 - 3.0 - - - - - - -
26/03:00am 9.4 NNW 18 23 1013.7 - 2.8 - - - - - - -
26/02:30am 9.3 NNW 19 24 1013.8 - 2.6 - - - - - - -
26/02:00am 9.2 NNW 17 23 1014.0 - 2.6 - - - - - - -
26/01:30am 9.2 NNW 17 22 1014.0 - 2.2 - - - - - - -
26/01:00am 9.4 NNW 17 22 1014.3 - 1.6 - - - - - - -
26/12:30am 9.4 NNW 16 21 1014.6 - 1.6 - - - - - - -
26/12:00am 9.6 NNW 16 22 1014.9 - 1.6 - - - - - - -
 
Date/Time
EST
Temp
°C
Wind Pressure Rain since
9am
mm
Weather Cloud Vis
km
Sea
Height
m
Swell
Dir  Spd
kts
Gust
kts
hPa Trend Height
m
Period
s
Dir
25/11:30pm 9.6 NNW 17 21 1014.9 - 1.6 - - - - - - -

Other Formats:

Comma delimited format used in spreadsheet applications
http://www.bom.gov.au/fwo/IDT60701/IDT60701.94962.axf

JavaScript Object Notation format (JSON) in row-major order
http://www.bom.gov.au/fwo/IDT60701/IDT60701.94962.json